sensor_id;sensor_type;location;lat;lon;timestamp;P1;durP1;ratioP1;P2;durP2;ratioP2
74495;SDS011;62979;55.720;37.606;2022-12-29T00:01:56;1.98;;;0.40;;
74495;SDS011;62979;55.720;37.606;2022-12-29T00:04:23;1.05;;;0.52;;
74495;SDS011;62979;55.720;37.606;2022-12-29T00:06:51;5.00;;;1.05;;
74495;SDS011;62979;55.720;37.606;2022-12-29T00:09:19;4.80;;;1.10;;
74495;SDS011;62979;55.720;37.606;2022-12-29T00:11:46;2.35;;;0.57;;
74495;SDS011;62979;55.720;37.606;2022-12-29T00:14:16;1.35;;;0.60;;
74495;SDS011;62979;55.720;37.606;2022-12-29T00:17:01;4.25;;;0.45;;
74495;SDS011;62979;55.720;37.606;2022-12-29T00:19:28;3.45;;;1.25;;
74495;SDS011;62979;55.720;37.606;2022-12-29T00:22:13;2.85;;;0.63;;
74495;SDS011;62979;55.720;37.606;2022-12-29T00:24:58;4.70;;;0.82;;
74495;SDS011;62979;55.720;37.606;2022-12-29T00:27:43;1.10;;;0.38;;
74495;SDS011;62979;55.720;37.606;2022-12-29T00:30:29;0.77;;;0.20;;
74495;SDS011;62979;55.720;37.606;2022-12-29T00:33:14;0.25;;;0.17;;
74495;SDS011;62979;55.720;37.606;2022-12-29T00:36:00;2.25;;;0.43;;
74495;SDS011;62979;55.720;37.606;2022-12-29T00:38:33;2.33;;;0.40;;
74495;SDS011;62979;55.720;37.606;2022-12-29T00:41:23;0.65;;;0.13;;
74495;SDS011;62979;55.720;37.606;2022-12-29T00:44:08;2.65;;;0.50;;
74495;SDS011;62979;55.720;37.606;2022-12-29T00:46:38;2.65;;;0.60;;
74495;SDS011;62979;55.720;37.606;2022-12-29T00:49:08;4.35;;;1.60;;
74495;SDS011;62979;55.720;37.606;2022-12-29T00:51:57;5.18;;;0.57;;
74495;SDS011;62979;55.720;37.606;2022-12-29T00:54:27;1.35;;;0.57;;
74495;SDS011;62979;55.720;37.606;2022-12-29T00:56:55;1.48;;;0.17;;
74495;SDS011;62979;55.720;37.606;2022-12-29T00:59:22;0.73;;;0.32;;
74495;SDS011;62979;55.720;37.606;2022-12-29T01:01:51;1.33;;;0.77;;
74495;SDS011;62979;55.720;37.606;2022-12-29T01:04:20;1.27;;;0.55;;
74495;SDS011;62979;55.720;37.606;2022-12-29T01:06:49;1.42;;;0.17;;
74495;SDS011;62979;55.720;37.606;2022-12-29T01:09:17;1.88;;;0.52;;
74495;SDS011;62979;55.720;37.606;2022-12-29T01:12:03;0.80;;;0.52;;
74495;SDS011;62979;55.720;37.606;2022-12-29T01:14:31;1.73;;;0.82;;
74495;SDS011;62979;55.720;37.606;2022-12-29T01:17:00;3.28;;;0.47;;
74495;SDS011;62979;55.720;37.606;2022-12-29T01:19:27;1.10;;;0.70;;
74495;SDS011;62979;55.720;37.606;2022-12-29T01:21:54;1.95;;;0.73;;
74495;SDS011;62979;55.720;37.606;2022-12-29T01:24:21;5.93;;;0.85;;
74495;SDS011;62979;55.720;37.606;2022-12-29T01:26:49;2.28;;;0.68;;
74495;SDS011;62979;55.720;37.606;2022-12-29T01:29:16;1.08;;;0.52;;
74495;SDS011;62979;55.720;37.606;2022-12-29T01:31:43;2.33;;;0.75;;
74495;SDS011;62979;55.720;37.606;2022-12-29T01:34:12;1.85;;;0.68;;
74495;SDS011;62979;55.720;37.606;2022-12-29T01:39:06;2.65;;;0.65;;
74495;SDS011;62979;55.720;37.606;2022-12-29T01:41:33;2.45;;;0.30;;
74495;SDS011;62979;55.720;37.606;2022-12-29T01:44:00;2.08;;;0.73;;
74495;SDS011;62979;55.720;37.606;2022-12-29T01:46:30;2.08;;;0.45;;
74495;SDS011;62979;55.720;37.606;2022-12-29T01:49:04;1.63;;;0.57;;
74495;SDS011;62979;55.720;37.606;2022-12-29T01:51:40;2.60;;;1.40;;
74495;SDS011;62979;55.720;37.606;2022-12-29T01:54:13;2.00;;;0.63;;
74495;SDS011;62979;55.720;37.606;2022-12-29T01:56:45;2.78;;;0.95;;
74495;SDS011;62979;55.720;37.606;2022-12-29T02:01:47;1.63;;;0.57;;
74495;SDS011;62979;55.720;37.606;2022-12-29T02:04:15;2.67;;;0.70;;
74495;SDS011;62979;55.720;37.606;2022-12-29T02:06:45;4.50;;;0.82;;
74495;SDS011;62979;55.720;37.606;2022-12-29T02:09:19;3.60;;;1.83;;
74495;SDS011;62979;55.720;37.606;2022-12-29T02:11:46;1.38;;;0.60;;
74495;SDS011;62979;55.720;37.606;2022-12-29T02:14:14;2.88;;;0.70;;
74495;SDS011;62979;55.720;37.606;2022-12-29T02:16:45;2.55;;;0.45;;
74495;SDS011;62979;55.720;37.606;2022-12-29T02:19:39;3.17;;;0.75;;
74495;SDS011;62979;55.720;37.606;2022-12-29T02:22:34;3.95;;;0.93;;
74495;SDS011;62979;55.720;37.606;2022-12-29T02:25:35;1.00;;;0.30;;
74495;SDS011;62979;55.720;37.606;2022-12-29T02:28:35;3.50;;;1.85;;
74495;SDS011;62979;55.720;37.606;2022-12-29T02:34:05;4.60;;;1.15;;
74495;SDS011;62979;55.720;37.606;2022-12-29T02:36:49;2.58;;;0.95;;
74495;SDS011;62979;55.720;37.606;2022-12-29T02:39:32;4.15;;;1.38;;
74495;SDS011;62979;55.720;37.606;2022-12-29T02:42:08;2.72;;;0.65;;
74495;SDS011;62979;55.720;37.606;2022-12-29T02:44:52;3.08;;;1.40;;
74495;SDS011;62979;55.720;37.606;2022-12-29T02:47:29;2.50;;;0.93;;
74495;SDS011;62979;55.720;37.606;2022-12-29T02:50:07;3.90;;;1.00;;
74495;SDS011;62979;55.720;37.606;2022-12-29T02:52:46;3.92;;;0.93;;
74495;SDS011;62979;55.720;37.606;2022-12-29T02:55:20;3.58;;;0.68;;
74495;SDS011;62979;55.720;37.606;2022-12-29T02:57:46;4.28;;;0.95;;
74495;SDS011;62979;55.720;37.606;2022-12-29T03:00:14;1.48;;;0.98;;
74495;SDS011;62979;55.720;37.606;2022-12-29T03:02:55;3.92;;;0.82;;
74495;SDS011;62979;55.720;37.606;2022-12-29T03:05:49;2.28;;;0.68;;
74495;SDS011;62979;55.720;37.606;2022-12-29T03:08:44;1.75;;;0.88;;
74495;SDS011;62979;55.720;37.606;2022-12-29T03:11:24;6.18;;;1.05;;
74495;SDS011;62979;55.720;37.606;2022-12-29T03:14:17;2.42;;;0.47;;
74495;SDS011;62979;55.720;37.606;2022-12-29T03:17:14;1.23;;;0.65;;
74495;SDS011;62979;55.720;37.606;2022-12-29T03:22:28;4.15;;;1.25;;
74495;SDS011;62979;55.720;37.606;2022-12-29T03:25:02;2.42;;;0.63;;
74495;SDS011;62979;55.720;37.606;2022-12-29T03:27:37;5.07;;;0.98;;
74495;SDS011;62979;55.720;37.606;2022-12-29T03:30:10;4.20;;;0.28;;
74495;SDS011;62979;55.720;37.606;2022-12-29T03:32:40;2.15;;;0.77;;
74495;SDS011;62979;55.720;37.606;2022-12-29T03:35:14;3.28;;;0.80;;
74495;SDS011;62979;55.720;37.606;2022-12-29T03:37:49;2.50;;;0.60;;
74495;SDS011;62979;55.720;37.606;2022-12-29T03:40:21;0.93;;;0.20;;
74495;SDS011;62979;55.720;37.606;2022-12-29T03:42:51;4.50;;;0.70;;
74495;SDS011;62979;55.720;37.606;2022-12-29T03:45:20;4.63;;;1.42;;
74495;SDS011;62979;55.720;37.606;2022-12-29T03:47:47;2.50;;;0.55;;
74495;SDS011;62979;55.720;37.606;2022-12-29T03:50:15;0.98;;;0.57;;
74495;SDS011;62979;55.720;37.606;2022-12-29T03:52:42;3.05;;;1.25;;
74495;SDS011;62979;55.720;37.606;2022-12-29T03:55:09;1.48;;;0.70;;
74495;SDS011;62979;55.720;37.606;2022-12-29T03:57:36;3.05;;;1.10;;
74495;SDS011;62979;55.720;37.606;2022-12-29T04:00:03;3.08;;;0.90;;
74495;SDS011;62979;55.720;37.606;2022-12-29T04:02:32;1.75;;;0.93;;
74495;SDS011;62979;55.720;37.606;2022-12-29T04:04:59;4.55;;;1.13;;
74495;SDS011;62979;55.720;37.606;2022-12-29T04:07:27;5.40;;;1.02;;
74495;SDS011;62979;55.720;37.606;2022-12-29T04:09:54;1.52;;;0.55;;
74495;SDS011;62979;55.720;37.606;2022-12-29T04:12:21;1.98;;;1.05;;
74495;SDS011;62979;55.720;37.606;2022-12-29T04:14:48;3.55;;;1.17;;
74495;SDS011;62979;55.720;37.606;2022-12-29T04:17:15;2.60;;;1.17;;
74495;SDS011;62979;55.720;37.606;2022-12-29T04:19:41;5.72;;;1.42;;
74495;SDS011;62979;55.720;37.606;2022-12-29T04:22:08;2.47;;;1.17;;
74495;SDS011;62979;55.720;37.606;2022-12-29T04:24:38;1.80;;;0.55;;
74495;SDS011;62979;55.720;37.606;2022-12-29T04:27:04;1.67;;;0.77;;
74495;SDS011;62979;55.720;37.606;2022-12-29T04:29:31;2.95;;;1.40;;
74495;SDS011;62979;55.720;37.606;2022-12-29T04:31:58;3.33;;;1.33;;
74495;SDS011;62979;55.720;37.606;2022-12-29T04:34:25;6.80;;;1.00;;
74495;SDS011;62979;55.720;37.606;2022-12-29T04:36:52;5.57;;;0.88;;
74495;SDS011;62979;55.720;37.606;2022-12-29T04:39:19;2.97;;;0.50;;
74495;SDS011;62979;55.720;37.606;2022-12-29T04:41:47;3.85;;;0.88;;
74495;SDS011;62979;55.720;37.606;2022-12-29T04:44:14;5.38;;;1.25;;
74495;SDS011;62979;55.720;37.606;2022-12-29T04:46:41;3.47;;;0.85;;
74495;SDS011;62979;55.720;37.606;2022-12-29T04:49:08;0.82;;;0.32;;
74495;SDS011;62979;55.720;37.606;2022-12-29T04:51:35;4.30;;;0.88;;
74495;SDS011;62979;55.720;37.606;2022-12-29T04:54:02;4.95;;;1.25;;
74495;SDS011;62979;55.720;37.606;2022-12-29T04:56:29;5.88;;;0.98;;
74495;SDS011;62979;55.720;37.606;2022-12-29T04:58:57;1.65;;;1.00;;
74495;SDS011;62979;55.720;37.606;2022-12-29T05:01:24;3.65;;;1.40;;
74495;SDS011;62979;55.720;37.606;2022-12-29T05:03:51;2.95;;;0.90;;
74495;SDS011;62979;55.720;37.606;2022-12-29T05:06:18;2.25;;;0.98;;
74495;SDS011;62979;55.720;37.606;2022-12-29T05:08:45;2.33;;;1.02;;
74495;SDS011;62979;55.720;37.606;2022-12-29T05:11:12;2.38;;;1.35;;
74495;SDS011;62979;55.720;37.606;2022-12-29T05:13:39;5.57;;;1.40;;
74495;SDS011;62979;55.720;37.606;2022-12-29T05:16:07;3.78;;;1.55;;
74495;SDS011;62979;55.720;37.606;2022-12-29T05:21:01;4.82;;;1.67;;
74495;SDS011;62979;55.720;37.606;2022-12-29T05:23:28;4.85;;;2.58;;
74495;SDS011;62979;55.720;37.606;2022-12-29T05:25:55;5.22;;;1.98;;
74495;SDS011;62979;55.720;37.606;2022-12-29T05:28:22;7.20;;;1.50;;
74495;SDS011;62979;55.720;37.606;2022-12-29T05:30:50;4.55;;;1.00;;
74495;SDS011;62979;55.720;37.606;2022-12-29T05:33:19;2.60;;;1.33;;
74495;SDS011;62979;55.720;37.606;2022-12-29T05:38:13;4.05;;;1.65;;
74495;SDS011;62979;55.720;37.606;2022-12-29T05:40:40;2.90;;;1.00;;
74495;SDS011;62979;55.720;37.606;2022-12-29T05:43:07;6.43;;;1.73;;
74495;SDS011;62979;55.720;37.606;2022-12-29T05:45:35;3.75;;;1.05;;
74495;SDS011;62979;55.720;37.606;2022-12-29T05:48:03;2.60;;;1.52;;
74495;SDS011;62979;55.720;37.606;2022-12-29T05:50:31;3.97;;;0.80;;
74495;SDS011;62979;55.720;37.606;2022-12-29T05:52:58;2.88;;;0.70;;
74495;SDS011;62979;55.720;37.606;2022-12-29T05:55:25;5.13;;;1.65;;
74495;SDS011;62979;55.720;37.606;2022-12-29T05:57:53;3.80;;;1.23;;
74495;SDS011;62979;55.720;37.606;2022-12-29T06:00:20;6.28;;;1.88;;
74495;SDS011;62979;55.720;37.606;2022-12-29T06:02:47;5.15;;;2.05;;
74495;SDS011;62979;55.720;37.606;2022-12-29T06:05:14;5.38;;;2.08;;
74495;SDS011;62979;55.720;37.606;2022-12-29T06:07:43;3.50;;;2.13;;
74495;SDS011;62979;55.720;37.606;2022-12-29T06:10:11;3.25;;;1.67;;
74495;SDS011;62979;55.720;37.606;2022-12-29T06:12:39;4.25;;;1.20;;
74495;SDS011;62979;55.720;37.606;2022-12-29T06:15:06;2.95;;;1.42;;
74495;SDS011;62979;55.720;37.606;2022-12-29T06:17:34;7.95;;;2.25;;
74495;SDS011;62979;55.720;37.606;2022-12-29T06:20:01;4.47;;;1.65;;
74495;SDS011;62979;55.720;37.606;2022-12-29T06:22:29;7.38;;;2.30;;
74495;SDS011;62979;55.720;37.606;2022-12-29T06:24:57;2.33;;;1.25;;
74495;SDS011;62979;55.720;37.606;2022-12-29T06:27:26;5.10;;;1.55;;
74495;SDS011;62979;55.720;37.606;2022-12-29T06:29:54;6.30;;;2.05;;
74495;SDS011;62979;55.720;37.606;2022-12-29T06:32:21;1.95;;;0.98;;
74495;SDS011;62979;55.720;37.606;2022-12-29T06:34:48;5.28;;;1.20;;
74495;SDS011;62979;55.720;37.606;2022-12-29T06:37:15;5.90;;;2.33;;
74495;SDS011;62979;55.720;37.606;2022-12-29T06:39:42;6.25;;;1.80;;
74495;SDS011;62979;55.720;37.606;2022-12-29T06:42:11;5.32;;;1.38;;
74495;SDS011;62979;55.720;37.606;2022-12-29T06:44:38;4.47;;;1.35;;
74495;SDS011;62979;55.720;37.606;2022-12-29T06:47:05;5.13;;;1.30;;
74495;SDS011;62979;55.720;37.606;2022-12-29T06:49:32;4.18;;;1.52;;
74495;SDS011;62979;55.720;37.606;2022-12-29T06:51:59;1.65;;;0.75;;
74495;SDS011;62979;55.720;37.606;2022-12-29T06:54:29;3.88;;;0.98;;
74495;SDS011;62979;55.720;37.606;2022-12-29T06:56:57;3.08;;;2.85;;
74495;SDS011;62979;55.720;37.606;2022-12-29T06:59:26;2.50;;;1.58;;
74495;SDS011;62979;55.720;37.606;2022-12-29T07:04:20;4.18;;;1.75;;
74495;SDS011;62979;55.720;37.606;2022-12-29T07:06:47;5.28;;;2.03;;
74495;SDS011;62979;55.720;37.606;2022-12-29T07:09:14;2.63;;;1.40;;
74495;SDS011;62979;55.720;37.606;2022-12-29T07:11:41;3.08;;;1.88;;
74495;SDS011;62979;55.720;37.606;2022-12-29T07:14:09;3.33;;;2.03;;
74495;SDS011;62979;55.720;37.606;2022-12-29T07:16:38;1.95;;;1.58;;
74495;SDS011;62979;55.720;37.606;2022-12-29T07:21:33;2.10;;;1.42;;
74495;SDS011;62979;55.720;37.606;2022-12-29T07:24:00;4.45;;;1.67;;
74495;SDS011;62979;55.720;37.606;2022-12-29T07:26:27;5.53;;;2.92;;
74495;SDS011;62979;55.720;37.606;2022-12-29T07:28:54;6.38;;;2.63;;
74495;SDS011;62979;55.720;37.606;2022-12-29T07:31:21;6.03;;;3.08;;
74495;SDS011;62979;55.720;37.606;2022-12-29T07:33:51;4.75;;;2.13;;
74495;SDS011;62979;55.720;37.606;2022-12-29T07:36:18;8.30;;;3.10;;
74495;SDS011;62979;55.720;37.606;2022-12-29T07:38:46;5.85;;;2.58;;
74495;SDS011;62979;55.720;37.606;2022-12-29T07:41:13;10.40;;;3.83;;
74495;SDS011;62979;55.720;37.606;2022-12-29T07:43:40;6.18;;;2.92;;
74495;SDS011;62979;55.720;37.606;2022-12-29T07:46:07;10.90;;;3.40;;
74495;SDS011;62979;55.720;37.606;2022-12-29T07:48:35;8.75;;;2.22;;
74495;SDS011;62979;55.720;37.606;2022-12-29T07:51:03;7.63;;;2.85;;
74495;SDS011;62979;55.720;37.606;2022-12-29T07:53:31;7.22;;;3.33;;
74495;SDS011;62979;55.720;37.606;2022-12-29T07:55:59;4.88;;;2.70;;
74495;SDS011;62979;55.720;37.606;2022-12-29T07:58:26;7.97;;;2.17;;
74495;SDS011;62979;55.720;37.606;2022-12-29T08:00:53;4.78;;;2.25;;
74495;SDS011;62979;55.720;37.606;2022-12-29T08:03:20;8.32;;;3.15;;
74495;SDS011;62979;55.720;37.606;2022-12-29T08:05:47;11.40;;;3.80;;
74495;SDS011;62979;55.720;37.606;2022-12-29T08:08:16;4.13;;;3.17;;
74495;SDS011;62979;55.720;37.606;2022-12-29T08:10:44;8.80;;;3.88;;
74495;SDS011;62979;55.720;37.606;2022-12-29T08:13:10;8.02;;;2.88;;
74495;SDS011;62979;55.720;37.606;2022-12-29T08:15:38;11.90;;;4.50;;
74495;SDS011;62979;55.720;37.606;2022-12-29T08:18:05;7.38;;;3.38;;
74495;SDS011;62979;55.720;37.606;2022-12-29T08:20:32;6.68;;;3.38;;
74495;SDS011;62979;55.720;37.606;2022-12-29T08:22:59;6.57;;;3.95;;
74495;SDS011;62979;55.720;37.606;2022-12-29T08:25:27;6.90;;;3.20;;
74495;SDS011;62979;55.720;37.606;2022-12-29T08:27:54;7.25;;;1.65;;
74495;SDS011;62979;55.720;37.606;2022-12-29T08:30:21;5.03;;;2.47;;
74495;SDS011;62979;55.720;37.606;2022-12-29T08:32:47;7.47;;;2.95;;
74495;SDS011;62979;55.720;37.606;2022-12-29T08:35:14;4.97;;;3.30;;
74495;SDS011;62979;55.720;37.606;2022-12-29T08:37:41;8.57;;;4.07;;
74495;SDS011;62979;55.720;37.606;2022-12-29T08:40:09;8.15;;;5.35;;
74495;SDS011;62979;55.720;37.606;2022-12-29T08:42:37;7.55;;;3.47;;
74495;SDS011;62979;55.720;37.606;2022-12-29T08:45:05;7.70;;;3.28;;
74495;SDS011;62979;55.720;37.606;2022-12-29T08:47:34;6.32;;;4.07;;
74495;SDS011;62979;55.720;37.606;2022-12-29T08:50:01;8.32;;;3.92;;
74495;SDS011;62979;55.720;37.606;2022-12-29T08:52:29;6.95;;;3.38;;
74495;SDS011;62979;55.720;37.606;2022-12-29T08:54:56;4.85;;;2.28;;
74495;SDS011;62979;55.720;37.606;2022-12-29T08:57:23;6.95;;;3.53;;
74495;SDS011;62979;55.720;37.606;2022-12-29T08:59:51;9.05;;;5.03;;
74495;SDS011;62979;55.720;37.606;2022-12-29T09:02:18;13.85;;;6.65;;
74495;SDS011;62979;55.720;37.606;2022-12-29T09:04:46;11.43;;;5.18;;
74495;SDS011;62979;55.720;37.606;2022-12-29T09:07:12;8.98;;;5.10;;
74495;SDS011;62979;55.720;37.606;2022-12-29T09:09:40;4.70;;;2.95;;
74495;SDS011;62979;55.720;37.606;2022-12-29T09:12:06;10.65;;;5.15;;
74495;SDS011;62979;55.720;37.606;2022-12-29T09:14:33;10.82;;;5.05;;
74495;SDS011;62979;55.720;37.606;2022-12-29T09:17:02;9.65;;;5.38;;
74495;SDS011;62979;55.720;37.606;2022-12-29T09:19:46;8.82;;;3.72;;
74495;SDS011;62979;55.720;37.606;2022-12-29T09:22:13;12.43;;;5.63;;
74495;SDS011;62979;55.720;37.606;2022-12-29T09:24:40;11.13;;;5.38;;
74495;SDS011;62979;55.720;37.606;2022-12-29T09:27:07;11.75;;;5.43;;
74495;SDS011;62979;55.720;37.606;2022-12-29T09:29:33;10.27;;;5.53;;
74495;SDS011;62979;55.720;37.606;2022-12-29T09:32:02;10.05;;;4.82;;
74495;SDS011;62979;55.720;37.606;2022-12-29T09:34:29;12.00;;;5.63;;
74495;SDS011;62979;55.720;37.606;2022-12-29T09:36:56;10.50;;;5.00;;
74495;SDS011;62979;55.720;37.606;2022-12-29T09:39:23;8.57;;;5.20;;
74495;SDS011;62979;55.720;37.606;2022-12-29T09:41:52;8.18;;;4.20;;
74495;SDS011;62979;55.720;37.606;2022-12-29T09:44:37;9.82;;;4.57;;
74495;SDS011;62979;55.720;37.606;2022-12-29T09:47:20;6.65;;;4.07;;
74495;SDS011;62979;55.720;37.606;2022-12-29T09:49:52;5.28;;;3.25;;
74495;SDS011;62979;55.720;37.606;2022-12-29T09:52:25;7.15;;;3.95;;
74495;SDS011;62979;55.720;37.606;2022-12-29T09:54:59;9.35;;;5.15;;
74495;SDS011;62979;55.720;37.606;2022-12-29T09:57:32;12.23;;;5.25;;
74495;SDS011;62979;55.720;37.606;2022-12-29T10:00:10;8.05;;;3.85;;
74495;SDS011;62979;55.720;37.606;2022-12-29T10:02:44;6.75;;;3.13;;
74495;SDS011;62979;55.720;37.606;2022-12-29T10:05:19;6.05;;;3.65;;
74495;SDS011;62979;55.720;37.606;2022-12-29T10:08:00;8.52;;;4.47;;
74495;SDS011;62979;55.720;37.606;2022-12-29T10:10:50;8.98;;;4.60;;
74495;SDS011;62979;55.720;37.606;2022-12-29T10:13:26;9.77;;;4.13;;
74495;SDS011;62979;55.720;37.606;2022-12-29T10:16:08;7.60;;;4.43;;
74495;SDS011;62979;55.720;37.606;2022-12-29T10:21:49;9.40;;;5.10;;
74495;SDS011;62979;55.720;37.606;2022-12-29T10:24:37;9.57;;;5.07;;
74495;SDS011;62979;55.720;37.606;2022-12-29T10:27:07;7.90;;;5.28;;
74495;SDS011;62979;55.720;37.606;2022-12-29T10:29:39;8.93;;;4.50;;
74495;SDS011;62979;55.720;37.606;2022-12-29T10:32:14;9.00;;;4.15;;
74495;SDS011;62979;55.720;37.606;2022-12-29T10:34:55;9.93;;;4.75;;
74495;SDS011;62979;55.720;37.606;2022-12-29T10:37:30;11.90;;;5.40;;
74495;SDS011;62979;55.720;37.606;2022-12-29T10:40:14;9.95;;;4.78;;
74495;SDS011;62979;55.720;37.606;2022-12-29T10:42:51;9.00;;;4.90;;
74495;SDS011;62979;55.720;37.606;2022-12-29T10:45:21;10.65;;;4.13;;
74495;SDS011;62979;55.720;37.606;2022-12-29T10:47:55;6.88;;;3.03;;
74495;SDS011;62979;55.720;37.606;2022-12-29T10:50:29;8.70;;;5.25;;
74495;SDS011;62979;55.720;37.606;2022-12-29T10:52:59;8.07;;;4.65;;
74495;SDS011;62979;55.720;37.606;2022-12-29T10:55:31;8.93;;;4.93;;
74495;SDS011;62979;55.720;37.606;2022-12-29T10:58:03;9.60;;;5.20;;
74495;SDS011;62979;55.720;37.606;2022-12-29T11:00:33;13.65;;;5.90;;
74495;SDS011;62979;55.720;37.606;2022-12-29T11:06:19;8.75;;;5.50;;
74495;SDS011;62979;55.720;37.606;2022-12-29T11:08:53;6.93;;;4.40;;
74495;SDS011;62979;55.720;37.606;2022-12-29T11:11:27;6.07;;;3.30;;
74495;SDS011;62979;55.720;37.606;2022-12-29T11:14:02;5.13;;;3.10;;
74495;SDS011;62979;55.720;37.606;2022-12-29T11:16:39;7.07;;;4.00;;
74495;SDS011;62979;55.720;37.606;2022-12-29T11:19:19;8.60;;;5.15;;
74495;SDS011;62979;55.720;37.606;2022-12-29T11:21:50;7.47;;;4.30;;
74495;SDS011;62979;55.720;37.606;2022-12-29T11:24:19;8.73;;;4.88;;
74495;SDS011;62979;55.720;37.606;2022-12-29T11:26:49;6.75;;;3.65;;
74495;SDS011;62979;55.720;37.606;2022-12-29T11:29:25;9.38;;;4.45;;
74495;SDS011;62979;55.720;37.606;2022-12-29T11:31:56;7.93;;;4.22;;
74495;SDS011;62979;55.720;37.606;2022-12-29T11:34:25;7.38;;;4.32;;
74495;SDS011;62979;55.720;37.606;2022-12-29T11:37:00;7.15;;;4.63;;
74495;SDS011;62979;55.720;37.606;2022-12-29T11:39:33;6.38;;;3.92;;
74495;SDS011;62979;55.720;37.606;2022-12-29T11:42:05;7.93;;;3.60;;
74495;SDS011;62979;55.720;37.606;2022-12-29T11:44:42;7.65;;;4.25;;
74495;SDS011;62979;55.720;37.606;2022-12-29T11:47:13;12.13;;;4.97;;
74495;SDS011;62979;55.720;37.606;2022-12-29T11:49:51;7.13;;;4.05;;
74495;SDS011;62979;55.720;37.606;2022-12-29T11:52:23;9.55;;;4.07;;
74495;SDS011;62979;55.720;37.606;2022-12-29T11:54:56;8.75;;;4.60;;
74495;SDS011;62979;55.720;37.606;2022-12-29T11:57:25;7.68;;;3.83;;
74495;SDS011;62979;55.720;37.606;2022-12-29T11:59:52;6.63;;;3.65;;
74495;SDS011;62979;55.720;37.606;2022-12-29T12:05:08;9.77;;;4.50;;
74495;SDS011;62979;55.720;37.606;2022-12-29T12:07:48;8.52;;;4.50;;
74495;SDS011;62979;55.720;37.606;2022-12-29T12:10:23;9.30;;;4.25;;
74495;SDS011;62979;55.720;37.606;2022-12-29T12:12:58;8.15;;;3.92;;
74495;SDS011;62979;55.720;37.606;2022-12-29T12:15:35;8.40;;;4.00;;
74495;SDS011;62979;55.720;37.606;2022-12-29T12:18:09;6.03;;;3.55;;
74495;SDS011;62979;55.720;37.606;2022-12-29T12:20:45;13.07;;;3.55;;
74495;SDS011;62979;55.720;37.606;2022-12-29T12:26:04;6.82;;;4.45;;
74495;SDS011;62979;55.720;37.606;2022-12-29T12:28:40;6.55;;;4.53;;
74495;SDS011;62979;55.720;37.606;2022-12-29T12:31:22;6.82;;;3.97;;
74495;SDS011;62979;55.720;37.606;2022-12-29T12:34:10;5.95;;;3.80;;
74495;SDS011;62979;55.720;37.606;2022-12-29T12:36:49;6.95;;;3.88;;
74495;SDS011;62979;55.720;37.606;2022-12-29T12:39:36;6.70;;;4.03;;
74495;SDS011;62979;55.720;37.606;2022-12-29T12:42:19;8.18;;;4.25;;
74495;SDS011;62979;55.720;37.606;2022-12-29T12:45:13;7.00;;;4.55;;
74495;SDS011;62979;55.720;37.606;2022-12-29T12:48:05;6.43;;;4.10;;
74495;SDS011;62979;55.720;37.606;2022-12-29T12:50:55;9.95;;;4.25;;
74495;SDS011;62979;55.720;37.606;2022-12-29T12:53:38;13.57;;;4.85;;
74495;SDS011;62979;55.720;37.606;2022-12-29T12:59:23;8.68;;;4.28;;
74495;SDS011;62979;55.720;37.606;2022-12-29T13:02:13;8.68;;;4.97;;
74495;SDS011;62979;55.720;37.606;2022-12-29T13:08:16;8.65;;;4.13;;
74495;SDS011;62979;55.720;37.606;2022-12-29T13:11:24;6.32;;;3.80;;
74495;SDS011;62979;55.720;37.606;2022-12-29T13:14:20;11.45;;;4.82;;
74495;SDS011;62979;55.720;37.606;2022-12-29T13:17:11;6.97;;;4.13;;
74495;SDS011;62979;55.720;37.606;2022-12-29T13:19:47;6.88;;;3.72;;
74495;SDS011;62979;55.720;37.606;2022-12-29T13:22:29;6.75;;;4.60;;
74495;SDS011;62979;55.720;37.606;2022-12-29T13:25:13;7.90;;;3.55;;
74495;SDS011;62979;55.720;37.606;2022-12-29T13:27:59;8.15;;;4.60;;
74495;SDS011;62979;55.720;37.606;2022-12-29T13:30:34;8.73;;;4.20;;
74495;SDS011;62979;55.720;37.606;2022-12-29T13:33:13;8.18;;;4.47;;
74495;SDS011;62979;55.720;37.606;2022-12-29T13:35:58;9.75;;;4.70;;
74495;SDS011;62979;55.720;37.606;2022-12-29T13:38:32;8.27;;;4.05;;
74495;SDS011;62979;55.720;37.606;2022-12-29T13:41:05;7.82;;;4.55;;
74495;SDS011;62979;55.720;37.606;2022-12-29T13:43:39;7.30;;;4.68;;
74495;SDS011;62979;55.720;37.606;2022-12-29T13:46:13;9.02;;;4.82;;
74495;SDS011;62979;55.720;37.606;2022-12-29T13:48:48;6.95;;;4.15;;
74495;SDS011;62979;55.720;37.606;2022-12-29T13:51:22;9.05;;;4.72;;
74495;SDS011;62979;55.720;37.606;2022-12-29T13:53:57;14.88;;;5.50;;
74495;SDS011;62979;55.720;37.606;2022-12-29T13:56:39;7.78;;;4.10;;
74495;SDS011;62979;55.720;37.606;2022-12-29T13:59:14;9.10;;;4.28;;
74495;SDS011;62979;55.720;37.606;2022-12-29T14:01:55;11.68;;;6.25;;
74495;SDS011;62979;55.720;37.606;2022-12-29T14:04:30;9.80;;;4.53;;
74495;SDS011;62979;55.720;37.606;2022-12-29T14:07:01;10.52;;;5.50;;
74495;SDS011;62979;55.720;37.606;2022-12-29T14:09:40;10.88;;;4.78;;
74495;SDS011;62979;55.720;37.606;2022-12-29T14:12:27;11.18;;;4.55;;
74495;SDS011;62979;55.720;37.606;2022-12-29T14:17:44;9.27;;;4.45;;
74495;SDS011;62979;55.720;37.606;2022-12-29T14:20:26;9.68;;;5.32;;
74495;SDS011;62979;55.720;37.606;2022-12-29T14:22:56;11.82;;;6.40;;
74495;SDS011;62979;55.720;37.606;2022-12-29T14:28:37;17.85;;;5.95;;
74495;SDS011;62979;55.720;37.606;2022-12-29T14:31:18;11.18;;;5.40;;
74495;SDS011;62979;55.720;37.606;2022-12-29T14:37:22;10.43;;;6.22;;
74495;SDS011;62979;55.720;37.606;2022-12-29T14:40:02;14.63;;;6.25;;
74495;SDS011;62979;55.720;37.606;2022-12-29T14:42:40;13.18;;;6.28;;
74495;SDS011;62979;55.720;37.606;2022-12-29T14:45:22;16.10;;;7.38;;
74495;SDS011;62979;55.720;37.606;2022-12-29T14:47:55;20.77;;;7.63;;
74495;SDS011;62979;55.720;37.606;2022-12-29T14:50:25;16.02;;;6.70;;
74495;SDS011;62979;55.720;37.606;2022-12-29T14:53:05;16.55;;;6.70;;
74495;SDS011;62979;55.720;37.606;2022-12-29T14:55:37;18.65;;;8.30;;
74495;SDS011;62979;55.720;37.606;2022-12-29T14:58:11;18.67;;;7.10;;
74495;SDS011;62979;55.720;37.606;2022-12-29T15:00:45;16.38;;;6.35;;
74495;SDS011;62979;55.720;37.606;2022-12-29T15:03:14;17.50;;;8.02;;
74495;SDS011;62979;55.720;37.606;2022-12-29T15:05:50;13.05;;;7.70;;
74495;SDS011;62979;55.720;37.606;2022-12-29T15:08:21;19.25;;;8.38;;
74495;SDS011;62979;55.720;37.606;2022-12-29T15:10:56;20.60;;;8.93;;
74495;SDS011;62979;55.720;37.606;2022-12-29T15:13:33;13.23;;;5.85;;
74495;SDS011;62979;55.720;37.606;2022-12-29T15:16:02;17.95;;;7.03;;
74495;SDS011;62979;55.720;37.606;2022-12-29T15:18:30;14.13;;;6.10;;
74495;SDS011;62979;55.720;37.606;2022-12-29T15:21:02;14.40;;;7.57;;
74495;SDS011;62979;55.720;37.606;2022-12-29T15:23:32;14.57;;;7.30;;
74495;SDS011;62979;55.720;37.606;2022-12-29T15:26:03;24.05;;;8.27;;
74495;SDS011;62979;55.720;37.606;2022-12-29T15:28:36;21.67;;;9.60;;
74495;SDS011;62979;55.720;37.606;2022-12-29T15:31:06;23.05;;;9.00;;
74495;SDS011;62979;55.720;37.606;2022-12-29T15:33:40;27.83;;;8.65;;
74495;SDS011;62979;55.720;37.606;2022-12-29T15:36:14;24.30;;;8.88;;
74495;SDS011;62979;55.720;37.606;2022-12-29T15:38:48;23.38;;;8.50;;
74495;SDS011;62979;55.720;37.606;2022-12-29T15:41:22;19.80;;;7.18;;
74495;SDS011;62979;55.720;37.606;2022-12-29T15:44:19;19.35;;;8.10;;
74495;SDS011;62979;55.720;37.606;2022-12-29T15:46:52;17.15;;;6.57;;
74495;SDS011;62979;55.720;37.606;2022-12-29T15:49:19;15.45;;;7.22;;
74495;SDS011;62979;55.720;37.606;2022-12-29T15:51:50;23.52;;;8.93;;
74495;SDS011;62979;55.720;37.606;2022-12-29T15:54:17;23.08;;;8.43;;